Aérodrome :
LOGIN :

S'inscrire | Disclaimer

   EN    FR    IT 

 










Légende :    VFR   VFR Marginal   IFR   IFR Intensif   IFR Très Intensif
Visi : 
Plafond : 
>= 8 km
>= 3000ft
5 à 8 km
1000 à 3000 ft
1500m à 5 km
500 à 1000 ft
800 à 1500m
200 à 500 ft
< 800m
< 200 ft
Symboles :   Orages  Brouillard  Fortes neiges  Fortes précipitations  Vent > 20 kt
SIGMETs :   Divers  Orages  Givrage  Turbulence  Onde Orograph.  Cendres Volcan.






- Altitude de l'aérodrome : 257 ft
- Code IATA : MAN


EGCC - Manchester

DERNIER METAR :
  • 160920Z AUTO VRB03KT 9999 NCD 03/01 Q0997 NOSIG

METARs EXPIRÉS :
  • 160850Z AUTO VRB03KT 9999 NCD 03/01 Q0997
  • 160820Z AUTO 18004KT 140V220 9999 SCT029 04/02 Q0996 NOSIG
  • 160750Z AUTO 17005KT 9999 BKN028 BKN037 04/02 Q0996 NOSIG
  • 160720Z AUTO 18005KT 150V210 9999 BKN028 04/02 Q0995 NOSIG
  • 160650Z AUTO 20007KT 9999 BKN031 04/02 Q0995 NOSIG

TAF TAF EGCC
Valide du 16 à 06h jusqu'au 17 à 12h UTC


160501Z 1606/1712 18009KT 9999 FEW030
PROB40 1700/1704 6000
PROB30 1704/1710 3000 BR
ATIS : +44 161 499 2324



MET'MAP, la Météo Aéronautique d'un coup d'oeil ! - Copyright ORBIFLY Décembre 2007 - Disclaimer

ORBIFLY MET'MAP TEAM :

Programmation & Développement : Alexandra Zaïnal
Sur une idée originale de : Baudouin d'Aumeries
Assistance à la programmation : Marc-Olivier Méhu
Soutien technique & logistique : Manuel Goepfert

Contact : metmap@orbifly.com




SOURCES & CREDITS :

   NOAA